createdAt,value
2022-11-07T00:01:36.552Z,100154.53
2022-11-07T00:06:38.072Z,100143.81
2022-11-07T00:11:39.617Z,100144.50
2022-11-07T00:16:41.579Z,100150.09
2022-11-07T00:21:43.656Z,100148.78
2022-11-07T00:26:46.864Z,100157.31
2022-11-07T00:31:49.181Z,100167.00
2022-11-07T00:36:50.684Z,100166.28
2022-11-07T00:41:52.122Z,100166.47
2022-11-07T00:46:53.552Z,100182.63
2022-11-07T00:51:54.984Z,100183.41
2022-11-07T00:56:56.480Z,100181.63
2022-11-07T01:01:58.103Z,100166.06
2022-11-07T01:06:59.829Z,100183.88
2022-11-07T01:12:01.381Z,100180.94
2022-11-07T01:17:02.914Z,100185.94
2022-11-07T01:22:04.465Z,100188.88
2022-11-07T01:27:05.985Z,100174.41
2022-11-07T01:32:07.509Z,100179.28
2022-11-07T01:37:09.042Z,100176.78
2022-11-07T01:42:12.214Z,100176.25
2022-11-07T01:47:13.785Z,100170.53
2022-11-07T01:52:22.953Z,100167.06
2022-11-07T01:57:29.263Z,100169.44
2022-11-07T02:02:32.714Z,100164.69
2022-11-07T02:07:35.730Z,100157.47
2022-11-07T02:12:37.694Z,100154.13
2022-11-07T02:17:39.242Z,100162.59
2022-11-07T02:22:56.135Z,100153.00
2022-11-07T02:28:00.342Z,100146.34
2022-11-07T02:33:03.047Z,100147.31
2022-11-07T02:38:08.626Z,100156.34
2022-11-07T02:43:13.174Z,100157.88
2022-11-07T02:48:15.322Z,100150.63
2022-11-07T02:53:17.099Z,100153.81
2022-11-07T02:58:18.940Z,100161.50
2022-11-07T03:03:20.550Z,100160.81
2022-11-07T03:08:22.170Z,100154.16
2022-11-07T03:13:24.525Z,100166.22
2022-11-07T03:18:27.020Z,100153.72
2022-11-07T03:23:28.660Z,100148.88
2022-11-07T03:28:30.262Z,100143.97
2022-11-07T03:33:32.276Z,100139.94
2022-11-07T03:38:33.728Z,100146.06
2022-11-07T03:43:35.152Z,100146.34
2022-11-07T03:48:36.654Z,100146.91
2022-11-07T03:53:38.400Z,100154.13
2022-11-07T03:58:39.799Z,100148.53
2022-11-07T04:03:41.296Z,100148.28
2022-11-07T04:08:42.824Z,100154.41
2022-11-07T04:13:44.220Z,100151.19
2022-11-07T04:18:45.837Z,100152.16
2022-11-07T04:23:47.312Z,100144.06
2022-11-07T04:28:48.723Z,100155.47
2022-11-07T04:33:50.224Z,100158.09
2022-11-07T04:38:51.693Z,100161.00
2022-11-07T04:43:53.114Z,100161.81
2022-11-07T04:48:54.567Z,100163.78
2022-11-07T04:53:56.067Z,100166.66
2022-11-07T04:58:57.522Z,100167.38
2022-11-07T05:03:58.962Z,100172.25
2022-11-07T05:09:00.386Z,100164.84
2022-11-07T05:14:01.797Z,100164.03
2022-11-07T05:19:03.600Z,100169.75
2022-11-07T05:24:05.379Z,100179.41
2022-11-07T05:29:06.991Z,100184.81
2022-11-07T05:34:13.490Z,100173.78
2022-11-07T05:39:16.024Z,100176.91
2022-11-07T05:44:17.497Z,100160.81
2022-11-07T05:49:19.001Z,100161.94
2022-11-07T05:54:20.644Z,100174.88
2022-11-07T05:59:22.114Z,100172.41
2022-11-07T06:04:23.624Z,100184.94
2022-11-07T06:09:25.072Z,100184.91
2022-11-07T06:14:27.849Z,100190.22
2022-11-07T06:19:29.480Z,100203.09
2022-11-07T06:24:31.051Z,100200.22
2022-11-07T06:29:32.582Z,100201.44
2022-11-07T06:34:34.013Z,100193.78
2022-11-07T06:39:35.494Z,100194.19
2022-11-07T06:44:37.054Z,100199.34
2022-11-07T06:49:38.505Z,100187.38
2022-11-07T06:54:39.934Z,100200.84
2022-11-07T06:59:41.358Z,100212.28
2022-11-07T07:04:42.920Z,100224.97
2022-11-07T07:09:44.469Z,100220.09
2022-11-07T07:14:45.964Z,100226.25
2022-11-07T07:19:47.701Z,100227.22
2022-11-07T07:24:49.345Z,100245.59
2022-11-07T07:29:51.185Z,100244.22
2022-11-07T07:34:52.864Z,100241.56
2022-11-07T07:39:54.627Z,100236.53
2022-11-07T07:44:56.213Z,100242.41
2022-11-07T07:49:57.719Z,100250.19
2022-11-07T07:54:59.200Z,100249.78
2022-11-07T08:00:00.740Z,100259.53
2022-11-07T08:05:02.406Z,100257.03
2022-11-07T08:10:27.152Z,100252.28
2022-11-07T08:15:29.081Z,100249.91
2022-11-07T08:20:30.963Z,100260.78
2022-11-07T08:25:32.765Z,100258.94
2022-11-07T08:30:35.598Z,100259.41
2022-11-07T08:35:42.303Z,100268.84
2022-11-07T08:40:44.469Z,100266.78
2022-11-07T08:45:48.046Z,100280.22
2022-11-07T08:50:57.378Z,100282.59
2022-11-07T08:56:04.009Z,100280.91
2022-11-07T09:01:08.043Z,100293.63
2022-11-07T09:06:09.674Z,100292.25
2022-11-07T09:11:11.280Z,100302.94
2022-11-07T09:16:12.841Z,100293.31
2022-11-07T09:21:20.680Z,100297.69
2022-11-07T09:26:23.804Z,100300.81
2022-11-07T09:31:25.320Z,100301.50
2022-11-07T09:36:27.090Z,100308.47
2022-11-07T09:41:46.241Z,100312.81
2022-11-07T09:46:59.709Z,100322.25
2022-11-07T09:52:24.133Z,100317.81
2022-11-07T09:57:26.130Z,100323.06
2022-11-07T10:02:32.166Z,100331.16
2022-11-07T10:07:36.736Z,100332.59
2022-11-07T10:13:06.221Z,100332.00
2022-11-07T10:18:33.717Z,100327.34
2022-11-07T10:23:54.030Z,100329.84
2022-11-07T10:29:20.605Z,100338.31
2022-11-07T10:34:36.020Z,100344.19
2022-11-07T10:39:37.811Z,100347.28
2022-11-07T10:44:41.670Z,100336.41
2022-11-07T10:49:59.782Z,100349.78
2022-11-07T10:55:17.273Z,100354.94
2022-11-07T11:00:29.656Z,100339.66
2022-11-07T11:05:31.060Z,100338.38
2022-11-07T11:10:38.237Z,100326.22
2022-11-07T11:15:44.458Z,100313.84
2022-11-07T11:20:58.191Z,100313.16
2022-11-07T11:26:07.467Z,100309.38
2022-11-07T11:31:18.343Z,100303.03
2022-11-07T11:36:26.346Z,100297.31
2022-11-07T11:41:52.102Z,100299.69
2022-11-07T11:47:04.034Z,100299.16
2022-11-07T11:52:14.863Z,100294.06
2022-11-07T11:57:45.608Z,100298.69
2022-11-07T12:03:15.473Z,100300.09
2022-11-07T12:08:29.254Z,100294.78
2022-11-07T12:13:58.477Z,100279.22
2022-11-07T12:19:20.893Z,100292.16
2022-11-07T12:24:31.490Z,100287.81
2022-11-07T12:30:10.499Z,100288.09
2022-11-07T12:35:14.782Z,100297.41
2022-11-07T12:40:38.072Z,100290.81
2022-11-07T12:46:12.083Z,100286.50
2022-11-07T12:51:29.352Z,100288.06
2022-11-07T12:56:35.108Z,100288.00
2022-11-07T13:01:53.102Z,100280.19
2022-11-07T13:07:00.255Z,100270.31
2022-11-07T13:12:11.228Z,100273.44
2022-11-07T13:17:20.243Z,100283.59
2022-11-07T13:22:30.780Z,100294.28
2022-11-07T13:27:36.345Z,100300.94
2022-11-07T13:32:38.841Z,100303.91
2022-11-07T13:37:42.791Z,100291.41
2022-11-07T13:42:45.283Z,100299.44
2022-11-07T13:47:47.735Z,100291.81
2022-11-07T13:53:19.370Z,100306.63
2022-11-07T13:58:22.372Z,100301.88
2022-11-07T14:03:26.875Z,100300.06
2022-11-07T14:08:31.226Z,100292.84
2022-11-07T14:13:40.628Z,100300.94
2022-11-07T14:18:48.661Z,100305.00
2022-11-07T14:23:50.229Z,100312.34
2022-11-07T14:28:52.600Z,100313.13
2022-11-07T14:34:00.938Z,100307.41
2022-11-07T14:39:11.430Z,100310.94
2022-11-07T14:44:53.351Z,100308.69
2022-11-07T14:49:59.849Z,100309.38
2022-11-07T14:55:05.493Z,100310.72
2022-11-07T15:00:20.107Z,100318.91
2022-11-07T15:05:28.898Z,100316.91
2022-11-07T15:10:36.170Z,100302.25
2022-11-07T15:15:37.935Z,100306.66
2022-11-07T15:20:39.550Z,100307.72
2022-11-07T15:25:53.203Z,100304.59
2022-11-07T15:30:57.109Z,100294.75
2022-11-07T15:36:01.212Z,100303.00
2022-11-07T15:41:02.700Z,100313.72
2022-11-07T15:46:13.089Z,100305.56
2022-11-07T15:51:14.569Z,100318.72
2022-11-07T15:56:19.433Z,100318.03
2022-11-07T16:01:21.103Z,100313.13
2022-11-07T16:06:30.526Z,100311.31
2022-11-07T16:11:31.989Z,100319.91
2022-11-07T16:16:34.517Z,100313.06
2022-11-07T16:21:35.970Z,100325.03
2022-11-07T16:26:38.994Z,100321.38
2022-11-07T16:31:41.443Z,100316.16
2022-11-07T16:36:43.012Z,100317.63
2022-11-07T16:41:44.596Z,100332.22
2022-11-07T16:46:45.978Z,100316.81
2022-11-07T16:51:47.419Z,100321.44
2022-11-07T16:56:49.109Z,100322.94
2022-11-07T17:01:52.788Z,100334.09
2022-11-07T17:06:54.405Z,100335.59
2022-11-07T17:11:55.810Z,100336.47
2022-11-07T17:16:57.264Z,100338.72
2022-11-07T17:21:58.875Z,100340.31
2022-11-07T17:27:00.385Z,100344.22
2022-11-07T17:32:01.793Z,100338.41
2022-11-07T17:37:03.221Z,100339.84
2022-11-07T17:42:04.965Z,100343.88
2022-11-07T17:47:06.929Z,100338.72
2022-11-07T17:52:08.333Z,100341.13
2022-11-07T17:57:10.401Z,100350.63
2022-11-07T18:02:19.552Z,100346.53
2022-11-07T18:07:21.064Z,100353.50
2022-11-07T18:12:22.466Z,100350.63
2022-11-07T18:17:23.902Z,100343.75
2022-11-07T18:22:25.322Z,100339.75
2022-11-07T18:27:26.790Z,100332.13
2022-11-07T18:32:32.927Z,100328.34
2022-11-07T18:37:37.442Z,100341.34
2022-11-07T18:42:42.922Z,100331.84
2022-11-07T18:47:44.357Z,100350.66
2022-11-07T18:52:45.835Z,100358.44
2022-11-07T18:57:47.293Z,100350.78
2022-11-07T19:02:51.259Z,100352.16
2022-11-07T19:07:52.824Z,100347.69
2022-11-07T19:12:54.254Z,100350.19
2022-11-07T19:17:55.785Z,100349.50
2022-11-07T19:22:57.202Z,100344.78
2022-11-07T19:27:58.624Z,100340.84
2022-11-07T19:33:00.939Z,100343.34
2022-11-07T19:38:08.694Z,100344.31
2022-11-07T19:43:11.578Z,100358.78
2022-11-07T19:48:13.192Z,100351.34
2022-11-07T19:53:15.050Z,100348.56
2022-11-07T19:58:16.691Z,100355.38
2022-11-07T20:03:18.491Z,100348.81
2022-11-07T20:08:21.151Z,100362.63
2022-11-07T20:13:22.733Z,100355.81
2022-11-07T20:18:24.865Z,100358.19
2022-11-07T20:23:26.406Z,100353.44
2022-11-07T20:28:27.854Z,100345.41
2022-11-07T20:33:29.494Z,100346.34
2022-11-07T20:38:31.467Z,100344.09
2022-11-07T20:43:33.602Z,100353.56
2022-11-07T20:48:35.606Z,100358.31
2022-11-07T20:53:38.611Z,100348.28
2022-11-07T20:58:41.934Z,100357.63
2022-11-07T21:03:43.606Z,100351.31
2022-11-07T21:08:48.299Z,100351.56
2022-11-07T21:13:53.185Z,100356.19
2022-11-07T21:18:56.020Z,100355.53
2022-11-07T21:23:57.963Z,100364.69
2022-11-07T21:29:00.805Z,100352.59
2022-11-07T21:34:02.356Z,100352.22
2022-11-07T21:39:04.603Z,100343.28
2022-11-07T21:44:06.012Z,100345.94
2022-11-07T21:49:08.037Z,100340.66
2022-11-07T21:54:09.888Z,100336.50
2022-11-07T21:59:11.845Z,100340.38
2022-11-07T22:04:13.668Z,100331.28
2022-11-07T22:09:17.179Z,100327.06
2022-11-07T22:14:22.198Z,100333.31
2022-11-07T22:19:25.153Z,100330.91
2022-11-07T22:24:26.574Z,100323.97
2022-11-07T22:29:27.991Z,100329.16
2022-11-07T22:34:29.455Z,100323.28
2022-11-07T22:39:30.991Z,100316.25
2022-11-07T22:44:32.423Z,100312.00
2022-11-07T22:49:33.937Z,100311.59
2022-11-07T22:54:35.432Z,100308.66
2022-11-07T22:59:36.897Z,100294.78
2022-11-07T23:04:38.318Z,100306.06
2022-11-07T23:09:39.841Z,100297.94
2022-11-07T23:14:41.338Z,100293.75
2022-11-07T23:19:42.798Z,100286.44
2022-11-07T23:24:47.147Z,100282.22
2022-11-07T23:29:48.610Z,100288.09
2022-11-07T23:34:50.008Z,100285.13
2022-11-07T23:39:51.487Z,100287.75
2022-11-07T23:44:52.964Z,100285.38
2022-11-07T23:49:54.415Z,100283.09
2022-11-07T23:54:55.827Z,100278.06
2022-11-07T23:59:57.255Z,100271.75
